createdAt,value
2018-03-29T00:01:19.159Z,79.99
2018-03-29T00:03:46.541Z,80.06
2018-03-29T00:06:13.960Z,80.21
2018-03-29T00:08:41.345Z,80.46
2018-03-29T00:11:08.766Z,80.46
2018-03-29T00:13:36.161Z,80.48
2018-03-29T00:16:03.709Z,80.25
2018-03-29T00:18:31.114Z,80.70
2018-03-29T00:20:58.515Z,81.46
2018-03-29T00:23:25.927Z,81.91
2018-03-29T00:25:53.340Z,82.08
2018-03-29T00:28:20.776Z,82.40
2018-03-29T00:30:48.178Z,82.62
2018-03-29T00:33:15.584Z,82.08
2018-03-29T00:35:42.998Z,82.06
2018-03-29T00:38:10.395Z,82.40
2018-03-29T00:40:37.801Z,81.94
2018-03-29T00:43:05.210Z,82.48
2018-03-29T00:45:32.608Z,82.02
2018-03-29T00:48:00.012Z,82.13
2018-03-29T00:50:27.438Z,82.39
2018-03-29T00:52:55.240Z,81.76
2018-03-29T00:55:22.692Z,81.47
2018-03-29T00:57:50.162Z,81.47
2018-03-29T01:00:17.726Z,81.40
2018-03-29T01:02:45.122Z,82.07
2018-03-29T01:05:12.521Z,81.43
2018-03-29T01:07:39.930Z,81.00
2018-03-29T01:10:07.352Z,81.43
2018-03-29T01:12:34.753Z,81.16
2018-03-29T01:15:02.149Z,81.47
2018-03-29T01:17:29.585Z,80.98
2018-03-29T01:19:56.980Z,80.72
2018-03-29T01:22:24.392Z,81.01
2018-03-29T01:24:51.823Z,81.06
2018-03-29T01:27:19.270Z,79.95
2018-03-29T01:29:46.677Z,80.25
2018-03-29T01:32:14.116Z,80.18
2018-03-29T01:34:41.552Z,79.35
2018-03-29T01:37:08.946Z,79.26
2018-03-29T01:39:36.357Z,79.16
2018-03-29T01:42:03.757Z,79.31
2018-03-29T01:44:31.261Z,80.45
2018-03-29T01:46:58.664Z,80.63
2018-03-29T01:49:26.176Z,81.93
2018-03-29T01:51:53.577Z,81.77
2018-03-29T01:54:20.982Z,81.77
2018-03-29T01:56:48.390Z,81.41
2018-03-29T01:59:15.782Z,82.48
2018-03-29T02:01:43.215Z,82.63
2018-03-29T02:04:10.606Z,82.96
2018-03-29T02:06:38.013Z,83.42
2018-03-29T02:09:05.414Z,83.26
2018-03-29T02:11:32.821Z,83.52
2018-03-29T02:14:00.217Z,83.34
2018-03-29T02:16:27.638Z,83.65
2018-03-29T02:18:55.067Z,83.42
2018-03-29T02:21:22.491Z,82.85
2018-03-29T02:23:49.904Z,83.01
2018-03-29T02:26:17.312Z,82.94
2018-03-29T02:28:44.713Z,83.46
2018-03-29T02:31:12.140Z,83.32
2018-03-29T02:33:39.532Z,82.77
2018-03-29T02:36:06.962Z,82.77
2018-03-29T02:38:34.355Z,82.98
2018-03-29T02:41:01.760Z,82.69
2018-03-29T02:43:29.235Z,82.46
2018-03-29T02:45:56.654Z,82.52
2018-03-29T02:48:24.055Z,82.68
2018-03-29T02:50:51.497Z,82.84
2018-03-29T02:53:18.894Z,83.36
2018-03-29T02:55:46.327Z,82.93
2018-03-29T02:58:13.768Z,82.75
2018-03-29T03:00:41.175Z,82.66
2018-03-29T03:03:08.565Z,82.38
2018-03-29T03:05:35.980Z,82.79
2018-03-29T03:08:03.382Z,82.13
2018-03-29T03:10:30.802Z,82.04
2018-03-29T03:12:58.201Z,82.16
2018-03-29T03:15:25.605Z,81.76
2018-03-29T03:17:53.002Z,81.77
2018-03-29T03:20:20.423Z,81.83
2018-03-29T03:22:47.818Z,81.71
2018-03-29T03:25:15.215Z,81.20
2018-03-29T03:27:42.773Z,81.53
2018-03-29T03:30:10.172Z,81.44
2018-03-29T03:32:37.597Z,81.55
2018-03-29T03:35:05.019Z,80.92
2018-03-29T03:37:32.409Z,81.01
2018-03-29T03:39:59.809Z,81.11
2018-03-29T03:42:27.217Z,81.07
2018-03-29T03:44:54.622Z,81.45
2018-03-29T03:47:22.021Z,80.74
2018-03-29T03:49:49.413Z,81.35
2018-03-29T03:52:16.826Z,81.35
2018-03-29T03:54:44.225Z,81.63
2018-03-29T03:57:11.638Z,81.42
2018-03-29T03:59:39.053Z,81.71
2018-03-29T04:02:06.472Z,81.65
2018-03-29T04:04:33.873Z,80.59
2018-03-29T04:07:01.287Z,80.72
2018-03-29T04:09:28.682Z,80.44
2018-03-29T04:11:56.093Z,80.59
2018-03-29T04:14:23.491Z,80.41
2018-03-29T04:16:50.901Z,80.37
2018-03-29T04:19:18.293Z,79.47
2018-03-29T04:21:46.037Z,80.31
2018-03-29T04:24:13.478Z,79.89
2018-03-29T04:26:40.882Z,79.78
2018-03-29T04:29:08.302Z,79.85
2018-03-29T04:31:35.730Z,80.34
2018-03-29T04:34:03.136Z,80.36
2018-03-29T04:36:30.565Z,80.35
2018-03-29T04:38:58.055Z,80.27
2018-03-29T04:41:25.445Z,80.24
2018-03-29T04:43:52.844Z,80.49
2018-03-29T04:46:20.272Z,81.01
2018-03-29T04:48:47.665Z,80.83
2018-03-29T04:51:15.146Z,80.82
2018-03-29T04:53:42.512Z,81.23
2018-03-29T04:56:09.911Z,81.08
2018-03-29T04:58:37.325Z,80.80
2018-03-29T05:01:04.729Z,81.06
2018-03-29T05:03:32.149Z,80.97
2018-03-29T05:05:59.554Z,80.80
2018-03-29T05:08:26.977Z,80.48
2018-03-29T05:10:54.394Z,80.73
2018-03-29T05:13:21.806Z,80.61
2018-03-29T05:15:49.217Z,80.10
2018-03-29T05:18:16.620Z,80.37
2018-03-29T05:20:44.038Z,79.97
2018-03-29T05:23:11.456Z,79.40
2018-03-29T05:25:38.867Z,79.41
2018-03-29T05:28:09.202Z,79.57
2018-03-29T05:30:36.605Z,79.64
2018-03-29T05:33:04.026Z,79.72
2018-03-29T05:35:31.433Z,79.34
2018-03-29T05:37:58.849Z,79.38
2018-03-29T05:40:26.258Z,78.59
2018-03-29T05:42:53.666Z,79.10
2018-03-29T05:45:21.094Z,79.24
2018-03-29T05:47:48.497Z,78.77
2018-03-29T05:50:15.910Z,78.63
2018-03-29T05:52:43.339Z,78.68
2018-03-29T05:55:10.739Z,78.77
2018-03-29T05:57:38.172Z,78.84
2018-03-29T06:00:06.452Z,78.19
2018-03-29T06:02:33.972Z,77.90
2018-03-29T06:05:01.372Z,78.02
2018-03-29T06:07:28.786Z,77.97
2018-03-29T06:09:56.202Z,77.71
2018-03-29T06:12:23.625Z,77.87
2018-03-29T06:14:51.039Z,77.93
2018-03-29T06:17:23.950Z,77.85
2018-03-29T06:19:51.346Z,77.81
2018-03-29T06:22:18.779Z,77.90
2018-03-29T06:24:46.190Z,78.64
2018-03-29T06:27:13.721Z,79.55
2018-03-29T06:29:41.121Z,80.13
2018-03-29T06:32:08.519Z,80.13
2018-03-29T06:34:35.944Z,79.99
2018-03-29T06:37:03.379Z,80.54
2018-03-29T06:39:30.790Z,80.13
2018-03-29T06:41:58.221Z,80.56
2018-03-29T06:44:25.637Z,80.74
2018-03-29T06:46:59.336Z,81.30
2018-03-29T06:49:27.282Z,81.67
2018-03-29T06:51:54.688Z,81.61
2018-03-29T06:54:22.126Z,81.91
2018-03-29T06:56:49.532Z,81.99
2018-03-29T06:59:16.958Z,82.13
2018-03-29T07:01:45.459Z,82.13
2018-03-29T07:04:12.882Z,81.89
2018-03-29T07:06:40.282Z,81.60
2018-03-29T07:09:07.857Z,81.55
2018-03-29T07:11:35.263Z,81.92
2018-03-29T07:14:02.784Z,82.06
2018-03-29T07:16:30.184Z,81.50
2018-03-29T07:18:57.595Z,81.90
2018-03-29T07:21:25.020Z,81.16
2018-03-29T07:23:52.669Z,81.13
2018-03-29T07:26:20.069Z,80.88
2018-03-29T07:28:47.495Z,80.38
2018-03-29T07:31:14.906Z,79.82
2018-03-29T07:33:42.323Z,80.00
2018-03-29T07:36:09.743Z,79.74
2018-03-29T07:38:37.161Z,79.20
2018-03-29T07:41:04.568Z,78.90
2018-03-29T07:43:32.233Z,78.13
2018-03-29T07:45:59.664Z,78.75
2018-03-29T07:48:27.142Z,78.62
2018-03-29T07:50:54.633Z,77.92
2018-03-29T07:53:22.104Z,77.53
2018-03-29T07:55:50.490Z,77.84
2018-03-29T07:58:17.905Z,77.64
2018-03-29T08:00:45.311Z,77.45
2018-03-29T08:03:12.712Z,77.06
2018-03-29T08:05:40.134Z,76.85
2018-03-29T08:08:07.537Z,76.86
2018-03-29T08:10:34.967Z,77.55
2018-03-29T08:13:02.365Z,77.38
2018-03-29T08:15:29.780Z,76.72
2018-03-29T08:17:57.194Z,76.53
2018-03-29T08:20:24.605Z,75.97
2018-03-29T08:22:52.023Z,75.40
2018-03-29T08:25:19.449Z,75.70
2018-03-29T08:27:46.857Z,75.29
2018-03-29T08:30:14.324Z,75.45
2018-03-29T08:32:41.726Z,75.11
2018-03-29T08:35:09.154Z,74.38
2018-03-29T08:37:36.625Z,74.70
2018-03-29T08:40:04.053Z,74.49
2018-03-29T08:42:31.470Z,73.92
2018-03-29T08:44:58.886Z,72.98
2018-03-29T08:47:26.302Z,72.37
2018-03-29T08:49:53.724Z,71.49
2018-03-29T08:52:21.130Z,70.26
2018-03-29T08:54:48.542Z,69.46
2018-03-29T08:57:16.037Z,67.12
2018-03-29T08:59:43.471Z,67.08
2018-03-29T09:02:10.868Z,66.81
2018-03-29T09:04:38.281Z,66.69
2018-03-29T09:07:05.693Z,64.44
2018-03-29T09:09:33.125Z,64.27
2018-03-29T09:12:00.538Z,63.96
2018-03-29T09:14:27.964Z,63.95
2018-03-29T09:16:55.365Z,63.90
2018-03-29T09:19:23.326Z,63.65
2018-03-29T09:21:52.694Z,62.46
2018-03-29T09:24:20.156Z,63.02
2018-03-29T09:26:47.513Z,63.41
2018-03-29T09:29:14.933Z,63.48
2018-03-29T09:31:42.337Z,63.40
2018-03-29T09:34:09.741Z,63.31
2018-03-29T09:36:37.163Z,63.19
2018-03-29T09:39:04.566Z,63.21
2018-03-29T09:41:31.992Z,63.27
2018-03-29T09:43:59.412Z,62.98
2018-03-29T09:46:26.832Z,62.76
2018-03-29T09:48:54.261Z,63.51
2018-03-29T09:51:21.666Z,63.40
2018-03-29T09:53:49.425Z,62.02
2018-03-29T09:56:16.844Z,63.11
2018-03-29T09:58:46.172Z,62.26
2018-03-29T10:01:13.616Z,62.31
2018-03-29T10:03:41.030Z,62.55
2018-03-29T10:06:26.917Z,62.48
2018-03-29T10:09:03.014Z,60.31
2018-03-29T10:11:30.433Z,61.52
2018-03-29T10:13:58.218Z,62.02
2018-03-29T10:16:25.635Z,61.11
2018-03-29T10:18:53.097Z,60.30
2018-03-29T10:21:20.584Z,59.61
2018-03-29T10:23:48.026Z,58.33
2018-03-29T10:26:15.484Z,57.69
2018-03-29T10:28:42.894Z,57.91
2018-03-29T10:31:10.324Z,57.64
2018-03-29T10:33:37.730Z,57.83
2018-03-29T10:36:05.241Z,58.17
2018-03-29T10:38:32.695Z,56.82
2018-03-29T10:41:00.299Z,57.27
2018-03-29T10:43:27.999Z,58.41
2018-03-29T10:45:55.410Z,57.08
2018-03-29T10:48:23.050Z,57.87
2018-03-29T10:50:50.967Z,58.19
2018-03-29T10:53:18.673Z,58.03
2018-03-29T10:55:46.128Z,58.25
2018-03-29T10:58:13.559Z,58.77
2018-03-29T11:00:41.017Z,57.75
2018-03-29T11:03:08.429Z,58.55
2018-03-29T11:05:35.865Z,58.26
2018-03-29T11:08:04.217Z,56.49
2018-03-29T11:10:31.737Z,57.56
2018-03-29T11:12:59.197Z,56.98
2018-03-29T11:15:26.893Z,57.07
2018-03-29T11:17:54.352Z,56.57
2018-03-29T11:20:21.861Z,55.99
2018-03-29T11:22:49.364Z,56.99
2018-03-29T11:25:16.844Z,57.20
2018-03-29T11:27:44.281Z,56.16
2018-03-29T11:30:11.692Z,57.30
2018-03-29T11:32:39.123Z,56.23
2018-03-29T11:35:06.591Z,56.02
2018-03-29T11:37:33.999Z,55.09
2018-03-29T11:40:01.657Z,54.75
2018-03-29T11:42:29.109Z,54.13
2018-03-29T11:44:56.560Z,54.37
2018-03-29T11:47:24.096Z,53.97
2018-03-29T11:49:51.639Z,54.43
2018-03-29T11:52:19.085Z,54.17
2018-03-29T11:54:46.532Z,53.49
2018-03-29T11:57:13.994Z,52.70
2018-03-29T11:59:42.335Z,53.04
2018-03-29T12:02:09.754Z,53.91
2018-03-29T12:04:37.170Z,53.65
2018-03-29T12:07:04.604Z,52.66
2018-03-29T12:09:32.014Z,52.93
2018-03-29T12:11:59.517Z,51.80
2018-03-29T12:14:27.057Z,51.80
2018-03-29T12:16:54.517Z,50.93
2018-03-29T12:19:22.041Z,49.82
2018-03-29T12:21:49.612Z,49.75
2018-03-29T12:24:17.074Z,50.68
2018-03-29T12:26:44.503Z,51.08
2018-03-29T12:29:12.126Z,54.96
2018-03-29T12:31:39.552Z,56.84
2018-03-29T12:34:06.982Z,57.49
2018-03-29T12:36:34.426Z,57.37
2018-03-29T12:39:01.858Z,57.85
2018-03-29T12:41:30.063Z,57.56
2018-03-29T12:43:58.756Z,57.50
2018-03-29T12:46:26.743Z,57.15
2018-03-29T12:48:54.182Z,57.32
2018-03-29T12:51:21.639Z,57.79
2018-03-29T12:53:49.223Z,57.47
2018-03-29T12:56:23.681Z,56.61
2018-03-29T12:58:51.330Z,57.33
2018-03-29T13:01:18.881Z,57.21
2018-03-29T13:03:46.560Z,57.43
2018-03-29T13:06:14.088Z,57.24
2018-03-29T13:08:43.461Z,56.05
2018-03-29T13:11:11.363Z,56.80
2018-03-29T13:13:39.138Z,56.65
2018-03-29T13:16:06.827Z,55.48
2018-03-29T13:18:51.162Z,56.10
2018-03-29T13:21:18.839Z,56.31
2018-03-29T13:23:46.446Z,56.64
2018-03-29T13:26:13.923Z,56.31
2018-03-29T13:28:41.505Z,56.11
2018-03-29T13:31:09.139Z,54.80
2018-03-29T13:33:36.577Z,54.54
2018-03-29T13:36:04.013Z,54.92
2018-03-29T13:38:31.476Z,54.47
2018-03-29T13:40:58.903Z,53.57
2018-03-29T13:43:26.368Z,52.98
2018-03-29T13:45:53.797Z,52.97
2018-03-29T13:48:21.247Z,50.62
2018-03-29T13:50:48.667Z,50.30
2018-03-29T13:53:16.112Z,49.63
2018-03-29T13:55:43.681Z,49.75
2018-03-29T13:58:11.179Z,49.65
2018-03-29T14:00:38.747Z,49.01
2018-03-29T14:03:06.182Z,48.51
2018-03-29T14:05:33.743Z,49.25
2018-03-29T14:08:01.362Z,49.23
2018-03-29T14:10:28.830Z,49.54
2018-03-29T14:12:56.516Z,49.21
2018-03-29T14:15:24.053Z,49.24
2018-03-29T14:17:52.019Z,48.88
2018-03-29T14:20:19.538Z,49.04
2018-03-29T14:22:47.230Z,48.91
2018-03-29T14:25:14.733Z,48.60
2018-03-29T14:27:42.160Z,49.67
2018-03-29T14:30:09.598Z,52.41
2018-03-29T14:32:37.014Z,56.51
2018-03-29T14:35:04.433Z,57.59
2018-03-29T14:37:31.889Z,58.43
2018-03-29T14:39:59.365Z,58.36
2018-03-29T14:42:26.839Z,58.36
2018-03-29T14:44:54.459Z,58.96
2018-03-29T14:47:22.088Z,59.42
2018-03-29T14:49:49.636Z,60.08
2018-03-29T14:52:17.143Z,60.93
2018-03-29T14:54:44.598Z,60.42
2018-03-29T14:57:12.046Z,60.25
2018-03-29T14:59:39.481Z,61.00
2018-03-29T15:02:06.987Z,61.22
2018-03-29T15:04:34.405Z,61.75
2018-03-29T15:07:01.964Z,63.24
2018-03-29T15:09:29.393Z,63.06
2018-03-29T15:11:57.743Z,63.35
2018-03-29T15:14:25.190Z,63.87
2018-03-29T15:16:52.621Z,63.64
2018-03-29T15:19:20.157Z,63.51
2018-03-29T15:21:47.631Z,64.14
2018-03-29T15:24:15.042Z,63.97
2018-03-29T15:26:42.492Z,64.16
2018-03-29T15:29:09.987Z,64.47
2018-03-29T15:31:37.552Z,64.16
2018-03-29T15:34:05.152Z,64.29
2018-03-29T15:36:32.750Z,64.12
2018-03-29T15:39:00.247Z,63.31
2018-03-29T15:41:27.762Z,62.93
2018-03-29T15:43:55.381Z,62.58
2018-03-29T15:46:23.194Z,62.84
2018-03-29T15:48:50.847Z,62.50
2018-03-29T15:51:19.367Z,62.39
2018-03-29T15:53:46.897Z,62.33
2018-03-29T15:56:14.370Z,62.62
2018-03-29T15:58:41.785Z,62.56
2018-03-29T16:01:09.219Z,63.13
2018-03-29T16:03:36.629Z,63.69
2018-03-29T16:06:04.053Z,64.26
2018-03-29T16:08:31.512Z,64.20
2018-03-29T16:10:58.974Z,64.65
2018-03-29T16:13:26.463Z,64.57
2018-03-29T16:15:53.971Z,65.01
2018-03-29T16:18:21.442Z,64.58
2018-03-29T16:20:49.023Z,63.86
2018-03-29T16:23:16.540Z,64.24
2018-03-29T16:25:43.981Z,64.52
2018-03-29T16:28:11.386Z,64.67
2018-03-29T16:30:38.805Z,64.45
2018-03-29T16:33:06.217Z,64.50
2018-03-29T16:35:33.642Z,64.52
2018-03-29T16:38:01.065Z,64.91
2018-03-29T16:40:28.518Z,64.77
2018-03-29T16:42:56.026Z,65.02
2018-03-29T16:45:23.594Z,65.02
2018-03-29T16:47:51.964Z,65.33
2018-03-29T16:50:19.527Z,65.34
2018-03-29T16:52:47.122Z,63.90
2018-03-29T16:55:14.602Z,63.55
2018-03-29T16:57:42.237Z,64.11
2018-03-29T17:00:09.647Z,63.41
2018-03-29T17:02:37.068Z,63.35
2018-03-29T17:05:04.491Z,63.11
2018-03-29T17:07:31.966Z,63.88
2018-03-29T17:09:59.444Z,63.98
2018-03-29T17:12:26.917Z,64.12
2018-03-29T17:14:54.467Z,64.50
2018-03-29T17:17:22.079Z,64.83
2018-03-29T17:19:49.612Z,65.14
2018-03-29T17:22:17.138Z,65.08
2018-03-29T17:24:44.602Z,65.32
2018-03-29T17:27:12.104Z,64.97
2018-03-29T17:29:39.510Z,65.32
2018-03-29T17:32:07.042Z,65.54
2018-03-29T17:34:34.445Z,65.42
2018-03-29T17:37:01.892Z,65.66
2018-03-29T17:39:29.338Z,65.70
2018-03-29T17:41:56.822Z,65.79
2018-03-29T17:44:24.357Z,65.97
2018-03-29T17:46:51.870Z,66.11
2018-03-29T17:49:19.289Z,66.34
2018-03-29T17:51:46.752Z,66.33
2018-03-29T17:54:14.201Z,66.81
2018-03-29T17:56:41.619Z,67.08
2018-03-29T17:59:09.052Z,67.31
2018-03-29T18:01:36.487Z,67.32
2018-03-29T18:04:03.869Z,67.13
2018-03-29T18:06:31.283Z,67.36
2018-03-29T18:08:58.770Z,67.30
2018-03-29T18:11:26.314Z,68.31
2018-03-29T18:13:53.780Z,68.67
2018-03-29T18:16:21.703Z,68.60
2018-03-29T18:18:49.181Z,69.78
2018-03-29T18:21:16.712Z,69.83
2018-03-29T18:23:44.125Z,70.00
2018-03-29T18:26:11.576Z,69.31
2018-03-29T18:28:38.981Z,69.26
2018-03-29T18:31:06.414Z,69.00
2018-03-29T18:33:33.833Z,69.68
2018-03-29T18:36:01.296Z,69.04
2018-03-29T18:38:28.884Z,69.16
2018-03-29T18:40:56.322Z,69.20
2018-03-29T18:43:23.885Z,70.18
2018-03-29T18:45:51.561Z,69.78
2018-03-29T18:48:18.959Z,69.96
2018-03-29T18:50:46.366Z,69.84
2018-03-29T18:53:13.776Z,70.13
2018-03-29T18:55:41.178Z,70.39
2018-03-29T18:58:08.607Z,70.20
2018-03-29T19:00:36.005Z,69.97
2018-03-29T19:03:03.429Z,70.11
2018-03-29T19:05:30.831Z,70.43
2018-03-29T19:07:58.258Z,71.28
2018-03-29T19:10:25.688Z,71.20
2018-03-29T19:12:53.220Z,71.08
2018-03-29T19:15:21.566Z,71.42
2018-03-29T19:17:49.279Z,71.61
2018-03-29T19:20:16.716Z,72.05
2018-03-29T19:22:44.124Z,72.22
2018-03-29T19:25:11.537Z,72.01
2018-03-29T19:27:39.141Z,72.21
2018-03-29T19:30:06.514Z,71.88
2018-03-29T19:32:34.110Z,72.06
2018-03-29T19:35:01.528Z,71.74
2018-03-29T19:37:28.954Z,71.57
2018-03-29T19:39:56.355Z,71.77
2018-03-29T19:42:23.773Z,71.86
2018-03-29T19:44:51.305Z,72.91
2018-03-29T19:47:18.927Z,73.62
2018-03-29T19:49:46.384Z,73.65
2018-03-29T19:52:13.809Z,73.03
2018-03-29T19:54:41.222Z,73.68
2018-03-29T19:57:08.634Z,74.00
2018-03-29T19:59:36.068Z,74.49
2018-03-29T20:02:03.510Z,74.15
2018-03-29T20:04:31.060Z,74.62
2018-03-29T20:06:58.534Z,74.87
2018-03-29T20:09:25.976Z,74.15
2018-03-29T20:11:53.371Z,74.68
2018-03-29T20:14:20.777Z,74.29
2018-03-29T20:16:48.421Z,73.87
2018-03-29T20:19:15.757Z,73.61
2018-03-29T20:21:43.214Z,73.94
2018-03-29T20:24:10.626Z,74.13
2018-03-29T20:26:38.051Z,74.54
2018-03-29T20:29:05.455Z,74.06
2018-03-29T20:31:32.854Z,75.35
2018-03-29T20:34:00.334Z,75.39
2018-03-29T20:36:27.779Z,75.25
2018-03-29T20:38:55.270Z,75.36
2018-03-29T20:41:23.121Z,75.41
2018-03-29T20:43:51.361Z,75.42
2018-03-29T20:46:18.864Z,75.27
2018-03-29T20:48:46.436Z,75.10
2018-03-29T20:51:13.881Z,75.03
2018-03-29T20:53:41.461Z,74.57
2018-03-29T20:56:08.871Z,74.29
2018-03-29T20:58:36.278Z,74.19
2018-03-29T21:01:03.693Z,73.85
2018-03-29T21:03:31.138Z,74.00
2018-03-29T21:05:58.545Z,73.78
2018-03-29T21:08:25.978Z,73.82
2018-03-29T21:10:53.473Z,73.64
2018-03-29T21:13:21.093Z,73.16
2018-03-29T21:15:48.529Z,73.14
2018-03-29T21:18:16.199Z,73.16
2018-03-29T21:20:43.618Z,73.21
2018-03-29T21:23:11.030Z,73.09
2018-03-29T21:25:38.467Z,73.22
2018-03-29T21:28:05.877Z,73.42
2018-03-29T21:30:33.335Z,73.30
2018-03-29T21:33:00.861Z,73.52
2018-03-29T21:35:28.393Z,73.59
2018-03-29T21:37:55.845Z,73.78
2018-03-29T21:40:23.431Z,74.02
2018-03-29T21:42:50.909Z,74.05
2018-03-29T21:45:18.426Z,74.28
2018-03-29T21:47:45.833Z,74.27
2018-03-29T21:50:13.260Z,74.40
2018-03-29T21:52:40.693Z,75.08
2018-03-29T21:55:08.102Z,74.95
2018-03-29T21:57:35.533Z,75.02
2018-03-29T22:00:03.053Z,74.84
2018-03-29T22:02:30.479Z,75.16
2018-03-29T22:04:58.162Z,75.15
2018-03-29T22:07:25.586Z,75.29
2018-03-29T22:09:53.087Z,75.70
2018-03-29T22:12:20.912Z,75.39
2018-03-29T22:14:48.344Z,75.65
2018-03-29T22:17:15.777Z,75.71
2018-03-29T22:19:43.185Z,76.06
2018-03-29T22:22:10.602Z,76.33
2018-03-29T22:24:38.009Z,76.14
2018-03-29T22:27:05.413Z,76.32
2018-03-29T22:29:32.838Z,76.11
2018-03-29T22:32:00.238Z,76.36
2018-03-29T22:34:27.657Z,76.92
2018-03-29T22:36:55.058Z,76.99
2018-03-29T22:39:22.486Z,76.59
2018-03-29T22:41:49.893Z,76.91
2018-03-29T22:44:17.324Z,77.45
2018-03-29T22:46:44.756Z,77.29
2018-03-29T22:49:12.173Z,79.31
2018-03-29T22:51:39.574Z,80.02
2018-03-29T22:54:06.994Z,79.87
2018-03-29T22:56:34.398Z,78.86
2018-03-29T22:59:01.827Z,78.75
2018-03-29T23:01:29.303Z,79.36
2018-03-29T23:03:56.737Z,78.94
2018-03-29T23:06:24.216Z,78.84
2018-03-29T23:08:51.667Z,79.26
2018-03-29T23:11:19.125Z,79.08
2018-03-29T23:13:46.593Z,79.42
2018-03-29T23:16:14.011Z,79.29
2018-03-29T23:18:41.433Z,79.18
2018-03-29T23:21:08.901Z,79.17
2018-03-29T23:23:36.261Z,79.21
2018-03-29T23:26:03.667Z,79.42
2018-03-29T23:28:31.082Z,78.98
2018-03-29T23:30:58.487Z,79.43
2018-03-29T23:33:25.908Z,79.38
2018-03-29T23:35:53.429Z,79.51
2018-03-29T23:38:20.920Z,79.31
2018-03-29T23:40:48.325Z,79.59
2018-03-29T23:43:15.755Z,79.75
2018-03-29T23:45:43.152Z,79.74
2018-03-29T23:48:10.569Z,79.78
2018-03-29T23:50:37.979Z,79.92
2018-03-29T23:53:05.534Z,79.79
2018-03-29T23:55:32.938Z,79.88
2018-03-29T23:58:12.114Z,79.98
